sensor_id;sensor_type;location;lat;lon;timestamp;P1;durP1;ratioP1;P2;durP2;ratioP2
11384;SDS011;5747;56.748;13.882;2024-03-08T00:01:03;2.27;;;1.40;;
11384;SDS011;5747;56.748;13.882;2024-03-08T00:03:33;2.47;;;1.50;;
11384;SDS011;5747;56.748;13.882;2024-03-08T00:06:01;1.83;;;1.27;;
11384;SDS011;5747;56.748;13.882;2024-03-08T00:08:32;2.20;;;1.43;;
11384;SDS011;5747;56.748;13.882;2024-03-08T00:11:01;2.67;;;1.70;;
11384;SDS011;5747;56.748;13.882;2024-03-08T00:13:30;1.93;;;1.40;;
11384;SDS011;5747;56.748;13.882;2024-03-08T00:15:58;3.60;;;1.30;;
11384;SDS011;5747;56.748;13.882;2024-03-08T00:18:27;1.70;;;1.47;;
11384;SDS011;5747;56.748;13.882;2024-03-08T00:20:55;4.03;;;1.63;;
11384;SDS011;5747;56.748;13.882;2024-03-08T00:23:23;1.77;;;1.23;;
11384;SDS011;5747;56.748;13.882;2024-03-08T00:25:53;2.47;;;1.60;;
11384;SDS011;5747;56.748;13.882;2024-03-08T00:28:22;2.50;;;1.43;;
11384;SDS011;5747;56.748;13.882;2024-03-08T00:30:51;2.00;;;1.40;;
11384;SDS011;5747;56.748;13.882;2024-03-08T00:33:19;1.57;;;1.30;;
11384;SDS011;5747;56.748;13.882;2024-03-08T00:35:48;4.80;;;1.40;;
11384;SDS011;5747;56.748;13.882;2024-03-08T00:38:16;2.03;;;1.40;;
11384;SDS011;5747;56.748;13.882;2024-03-08T00:40:46;2.27;;;1.50;;
11384;SDS011;5747;56.748;13.882;2024-03-08T00:43:15;3.33;;;1.47;;
11384;SDS011;5747;56.748;13.882;2024-03-08T00:45:44;1.83;;;1.40;;
11384;SDS011;5747;56.748;13.882;2024-03-08T00:48:12;3.47;;;1.40;;
11384;SDS011;5747;56.748;13.882;2024-03-08T00:50:41;2.03;;;1.40;;
11384;SDS011;5747;56.748;13.882;2024-03-08T00:53:12;3.10;;;1.90;;
11384;SDS011;5747;56.748;13.882;2024-03-08T00:55:40;2.70;;;1.57;;
11384;SDS011;5747;56.748;13.882;2024-03-08T00:58:09;2.27;;;1.60;;
11384;SDS011;5747;56.748;13.882;2024-03-08T01:00:39;2.77;;;1.70;;
11384;SDS011;5747;56.748;13.882;2024-03-08T01:03:07;3.40;;;1.77;;
11384;SDS011;5747;56.748;13.882;2024-03-08T01:05:37;3.80;;;1.53;;
11384;SDS011;5747;56.748;13.882;2024-03-08T01:08:06;3.47;;;1.83;;
11384;SDS011;5747;56.748;13.882;2024-03-08T01:10:34;9.07;;;1.80;;
11384;SDS011;5747;56.748;13.882;2024-03-08T01:13:04;2.40;;;1.77;;
11384;SDS011;5747;56.748;13.882;2024-03-08T01:15:32;4.03;;;1.70;;
11384;SDS011;5747;56.748;13.882;2024-03-08T01:18:02;2.43;;;1.60;;
11384;SDS011;5747;56.748;13.882;2024-03-08T01:20:31;5.13;;;1.60;;
11384;SDS011;5747;56.748;13.882;2024-03-08T01:23:00;1.53;;;1.30;;
11384;SDS011;5747;56.748;13.882;2024-03-08T01:25:28;2.80;;;1.33;;
11384;SDS011;5747;56.748;13.882;2024-03-08T01:27:58;2.10;;;1.50;;
11384;SDS011;5747;56.748;13.882;2024-03-08T01:30:27;3.40;;;1.40;;
11384;SDS011;5747;56.748;13.882;2024-03-08T01:32:55;2.43;;;1.67;;
11384;SDS011;5747;56.748;13.882;2024-03-08T01:35:25;1.40;;;1.30;;
11384;SDS011;5747;56.748;13.882;2024-03-08T01:37:54;2.70;;;1.20;;
11384;SDS011;5747;56.748;13.882;2024-03-08T01:40:22;4.57;;;1.70;;
11384;SDS011;5747;56.748;13.882;2024-03-08T01:42:51;3.07;;;1.80;;
11384;SDS011;5747;56.748;13.882;2024-03-08T01:45:20;2.53;;;1.80;;
11384;SDS011;5747;56.748;13.882;2024-03-08T01:47:48;3.60;;;1.93;;
11384;SDS011;5747;56.748;13.882;2024-03-08T01:50:17;3.83;;;2.20;;
11384;SDS011;5747;56.748;13.882;2024-03-08T01:52:47;2.93;;;1.60;;
11384;SDS011;5747;56.748;13.882;2024-03-08T01:55:16;2.40;;;1.70;;
11384;SDS011;5747;56.748;13.882;2024-03-08T01:57:44;4.37;;;2.47;;
11384;SDS011;5747;56.748;13.882;2024-03-08T02:00:13;7.10;;;2.17;;
11384;SDS011;5747;56.748;13.882;2024-03-08T02:02:43;3.90;;;1.80;;
11384;SDS011;5747;56.748;13.882;2024-03-08T02:05:13;4.47;;;1.70;;
11384;SDS011;5747;56.748;13.882;2024-03-08T02:07:42;2.97;;;1.83;;
11384;SDS011;5747;56.748;13.882;2024-03-08T02:10:12;2.67;;;1.77;;
11384;SDS011;5747;56.748;13.882;2024-03-08T02:12:41;5.20;;;1.53;;
11384;SDS011;5747;56.748;13.882;2024-03-08T02:15:09;2.23;;;1.40;;
11384;SDS011;5747;56.748;13.882;2024-03-08T02:17:38;3.47;;;1.97;;
11384;SDS011;5747;56.748;13.882;2024-03-08T02:20:07;2.70;;;1.63;;
11384;SDS011;5747;56.748;13.882;2024-03-08T02:22:38;3.90;;;1.50;;
11384;SDS011;5747;56.748;13.882;2024-03-08T02:25:06;3.17;;;1.83;;
11384;SDS011;5747;56.748;13.882;2024-03-08T02:27:36;2.30;;;1.77;;
11384;SDS011;5747;56.748;13.882;2024-03-08T02:30:04;3.40;;;1.80;;
11384;SDS011;5747;56.748;13.882;2024-03-08T02:32:33;3.30;;;1.80;;
11384;SDS011;5747;56.748;13.882;2024-03-08T02:35:02;2.77;;;1.60;;
11384;SDS011;5747;56.748;13.882;2024-03-08T02:37:32;3.60;;;1.80;;
11384;SDS011;5747;56.748;13.882;2024-03-08T02:40:02;5.00;;;1.70;;
11384;SDS011;5747;56.748;13.882;2024-03-08T02:42:31;2.63;;;1.63;;
11384;SDS011;5747;56.748;13.882;2024-03-08T02:45:00;4.17;;;1.90;;
11384;SDS011;5747;56.748;13.882;2024-03-08T02:47:28;2.77;;;1.50;;
11384;SDS011;5747;56.748;13.882;2024-03-08T02:49:57;2.60;;;1.70;;
11384;SDS011;5747;56.748;13.882;2024-03-08T02:52:26;3.47;;;1.93;;
11384;SDS011;5747;56.748;13.882;2024-03-08T02:54:54;3.60;;;1.90;;
11384;SDS011;5747;56.748;13.882;2024-03-08T02:57:23;2.87;;;1.70;;
11384;SDS011;5747;56.748;13.882;2024-03-08T02:59:51;3.53;;;1.80;;
11384;SDS011;5747;56.748;13.882;2024-03-08T03:02:21;2.93;;;1.50;;
11384;SDS011;5747;56.748;13.882;2024-03-08T03:04:50;3.60;;;1.50;;
11384;SDS011;5747;56.748;13.882;2024-03-08T03:07:18;3.90;;;1.70;;
11384;SDS011;5747;56.748;13.882;2024-03-08T03:09:46;5.03;;;1.50;;
11384;SDS011;5747;56.748;13.882;2024-03-08T03:12:14;2.40;;;1.47;;
11384;SDS011;5747;56.748;13.882;2024-03-08T03:14:44;3.83;;;1.63;;
11384;SDS011;5747;56.748;13.882;2024-03-08T03:17:12;3.43;;;1.60;;
11384;SDS011;5747;56.748;13.882;2024-03-08T03:19:40;3.23;;;1.60;;
11384;SDS011;5747;56.748;13.882;2024-03-08T03:22:09;3.70;;;1.97;;
11384;SDS011;5747;56.748;13.882;2024-03-08T03:24:37;2.97;;;1.70;;
11384;SDS011;5747;56.748;13.882;2024-03-08T03:27:06;3.50;;;1.57;;
11384;SDS011;5747;56.748;13.882;2024-03-08T03:29:38;2.20;;;1.60;;
11384;SDS011;5747;56.748;13.882;2024-03-08T03:32:10;2.83;;;1.53;;
11384;SDS011;5747;56.748;13.882;2024-03-08T03:34:38;4.63;;;1.73;;
11384;SDS011;5747;56.748;13.882;2024-03-08T03:37:06;4.07;;;1.60;;
11384;SDS011;5747;56.748;13.882;2024-03-08T03:39:35;2.77;;;1.60;;
11384;SDS011;5747;56.748;13.882;2024-03-08T03:42:14;3.20;;;1.63;;
11384;SDS011;5747;56.748;13.882;2024-03-08T03:44:44;2.97;;;1.60;;
11384;SDS011;5747;56.748;13.882;2024-03-08T03:47:13;1.93;;;1.70;;
11384;SDS011;5747;56.748;13.882;2024-03-08T03:49:42;3.00;;;1.57;;
11384;SDS011;5747;56.748;13.882;2024-03-08T03:52:10;3.03;;;1.60;;
11384;SDS011;5747;56.748;13.882;2024-03-08T03:54:38;3.07;;;1.80;;
11384;SDS011;5747;56.748;13.882;2024-03-08T03:57:07;2.63;;;1.90;;
11384;SDS011;5747;56.748;13.882;2024-03-08T04:02:42;2.87;;;1.63;;
11384;SDS011;5747;56.748;13.882;2024-03-08T04:05:11;2.20;;;1.57;;
11384;SDS011;5747;56.748;13.882;2024-03-08T04:07:39;2.53;;;1.70;;
11384;SDS011;5747;56.748;13.882;2024-03-08T04:10:09;3.97;;;1.80;;
11384;SDS011;5747;56.748;13.882;2024-03-08T04:12:38;2.90;;;1.93;;
11384;SDS011;5747;56.748;13.882;2024-03-08T04:15:07;2.37;;;1.47;;
11384;SDS011;5747;56.748;13.882;2024-03-08T04:17:38;2.40;;;1.50;;
11384;SDS011;5747;56.748;13.882;2024-03-08T04:20:25;2.60;;;1.43;;
11384;SDS011;5747;56.748;13.882;2024-03-08T04:22:53;3.77;;;1.77;;
11384;SDS011;5747;56.748;13.882;2024-03-08T04:25:22;2.23;;;1.53;;
11384;SDS011;5747;56.748;13.882;2024-03-08T04:27:50;4.83;;;1.73;;
11384;SDS011;5747;56.748;13.882;2024-03-08T04:30:18;3.03;;;1.53;;
11384;SDS011;5747;56.748;13.882;2024-03-08T04:32:48;3.60;;;1.77;;
11384;SDS011;5747;56.748;13.882;2024-03-08T04:35:16;2.60;;;1.70;;
11384;SDS011;5747;56.748;13.882;2024-03-08T04:37:48;5.10;;;1.70;;
11384;SDS011;5747;56.748;13.882;2024-03-08T04:40:16;2.63;;;1.63;;
11384;SDS011;5747;56.748;13.882;2024-03-08T04:42:45;2.63;;;1.60;;
11384;SDS011;5747;56.748;13.882;2024-03-08T04:45:17;3.37;;;1.53;;
11384;SDS011;5747;56.748;13.882;2024-03-08T04:47:46;3.37;;;1.47;;
11384;SDS011;5747;56.748;13.882;2024-03-08T04:50:14;3.00;;;1.73;;
11384;SDS011;5747;56.748;13.882;2024-03-08T04:52:42;2.40;;;1.70;;
11384;SDS011;5747;56.748;13.882;2024-03-08T04:55:11;2.03;;;1.43;;
11384;SDS011;5747;56.748;13.882;2024-03-08T04:57:39;2.50;;;1.43;;
11384;SDS011;5747;56.748;13.882;2024-03-08T05:00:09;3.53;;;1.70;;
11384;SDS011;5747;56.748;13.882;2024-03-08T05:02:38;2.20;;;1.60;;
11384;SDS011;5747;56.748;13.882;2024-03-08T05:05:07;3.10;;;1.60;;
11384;SDS011;5747;56.748;13.882;2024-03-08T05:07:38;2.93;;;1.80;;
11384;SDS011;5747;56.748;13.882;2024-03-08T05:10:06;4.20;;;1.60;;
11384;SDS011;5747;56.748;13.882;2024-03-08T05:12:37;3.03;;;1.90;;
11384;SDS011;5747;56.748;13.882;2024-03-08T05:15:06;3.80;;;1.60;;
11384;SDS011;5747;56.748;13.882;2024-03-08T05:17:35;2.80;;;1.70;;
11384;SDS011;5747;56.748;13.882;2024-03-08T05:20:03;3.00;;;1.80;;
11384;SDS011;5747;56.748;13.882;2024-03-08T05:22:34;2.73;;;1.90;;
11384;SDS011;5747;56.748;13.882;2024-03-08T05:25:02;2.73;;;1.70;;
11384;SDS011;5747;56.748;13.882;2024-03-08T05:27:31;5.23;;;1.50;;
11384;SDS011;5747;56.748;13.882;2024-03-08T05:30:00;2.43;;;1.57;;
11384;SDS011;5747;56.748;13.882;2024-03-08T05:32:30;3.10;;;1.57;;
11384;SDS011;5747;56.748;13.882;2024-03-08T05:34:58;3.13;;;1.63;;
11384;SDS011;5747;56.748;13.882;2024-03-08T05:37:26;1.80;;;1.47;;
11384;SDS011;5747;56.748;13.882;2024-03-08T05:39:54;2.47;;;1.57;;
11384;SDS011;5747;56.748;13.882;2024-03-08T05:42:23;5.53;;;1.90;;
11384;SDS011;5747;56.748;13.882;2024-03-08T05:44:51;4.00;;;1.80;;
11384;SDS011;5747;56.748;13.882;2024-03-08T05:47:20;2.27;;;1.60;;
11384;SDS011;5747;56.748;13.882;2024-03-08T05:49:49;2.83;;;1.80;;
11384;SDS011;5747;56.748;13.882;2024-03-08T05:52:17;3.20;;;1.83;;
11384;SDS011;5747;56.748;13.882;2024-03-08T05:54:45;3.20;;;2.00;;
11384;SDS011;5747;56.748;13.882;2024-03-08T05:57:13;5.03;;;1.83;;
11384;SDS011;5747;56.748;13.882;2024-03-08T05:59:41;2.47;;;1.80;;
11384;SDS011;5747;56.748;13.882;2024-03-08T06:02:09;3.20;;;1.80;;
11384;SDS011;5747;56.748;13.882;2024-03-08T06:04:39;3.33;;;1.83;;
11384;SDS011;5747;56.748;13.882;2024-03-08T06:07:09;2.30;;;1.70;;
11384;SDS011;5747;56.748;13.882;2024-03-08T06:09:38;4.20;;;1.60;;
11384;SDS011;5747;56.748;13.882;2024-03-08T06:12:07;3.57;;;1.70;;
11384;SDS011;5747;56.748;13.882;2024-03-08T06:14:37;4.03;;;1.77;;
11384;SDS011;5747;56.748;13.882;2024-03-08T06:17:05;3.10;;;1.87;;
11384;SDS011;5747;56.748;13.882;2024-03-08T06:19:34;3.00;;;1.80;;
11384;SDS011;5747;56.748;13.882;2024-03-08T06:22:04;2.33;;;1.83;;
11384;SDS011;5747;56.748;13.882;2024-03-08T06:24:32;4.10;;;1.80;;
11384;SDS011;5747;56.748;13.882;2024-03-08T06:27:03;2.40;;;1.63;;
11384;SDS011;5747;56.748;13.882;2024-03-08T06:29:31;3.00;;;1.67;;
11384;SDS011;5747;56.748;13.882;2024-03-08T06:31:59;2.67;;;1.80;;
11384;SDS011;5747;56.748;13.882;2024-03-08T06:34:28;2.47;;;1.90;;
11384;SDS011;5747;56.748;13.882;2024-03-08T06:36:56;3.53;;;1.80;;
11384;SDS011;5747;56.748;13.882;2024-03-08T06:39:28;3.13;;;1.90;;
11384;SDS011;5747;56.748;13.882;2024-03-08T06:41:58;5.50;;;1.70;;
11384;SDS011;5747;56.748;13.882;2024-03-08T06:44:26;2.87;;;2.07;;
11384;SDS011;5747;56.748;13.882;2024-03-08T06:46:54;2.53;;;1.90;;
11384;SDS011;5747;56.748;13.882;2024-03-08T06:49:26;3.70;;;1.70;;
11384;SDS011;5747;56.748;13.882;2024-03-08T06:51:55;2.73;;;1.70;;
11384;SDS011;5747;56.748;13.882;2024-03-08T06:54:23;5.33;;;2.13;;
11384;SDS011;5747;56.748;13.882;2024-03-08T06:56:53;3.33;;;2.30;;
11384;SDS011;5747;56.748;13.882;2024-03-08T06:59:21;3.57;;;2.40;;
11384;SDS011;5747;56.748;13.882;2024-03-08T07:01:49;4.33;;;2.90;;
11384;SDS011;5747;56.748;13.882;2024-03-08T07:04:17;5.10;;;2.77;;
11384;SDS011;5747;56.748;13.882;2024-03-08T07:06:46;9.17;;;3.70;;
11384;SDS011;5747;56.748;13.882;2024-03-08T07:09:16;5.40;;;3.27;;
11384;SDS011;5747;56.748;13.882;2024-03-08T07:11:44;7.90;;;4.00;;
11384;SDS011;5747;56.748;13.882;2024-03-08T07:14:14;6.60;;;3.20;;
11384;SDS011;5747;56.748;13.882;2024-03-08T07:16:42;5.93;;;3.70;;
11384;SDS011;5747;56.748;13.882;2024-03-08T07:19:11;6.80;;;3.50;;
11384;SDS011;5747;56.748;13.882;2024-03-08T07:21:39;7.50;;;3.60;;
11384;SDS011;5747;56.748;13.882;2024-03-08T07:24:08;8.07;;;4.00;;
11384;SDS011;5747;56.748;13.882;2024-03-08T07:26:53;4.53;;;3.13;;
11384;SDS011;5747;56.748;13.882;2024-03-08T07:29:23;11.60;;;3.40;;
11384;SDS011;5747;56.748;13.882;2024-03-08T07:31:51;8.93;;;3.30;;
11384;SDS011;5747;56.748;13.882;2024-03-08T07:34:28;7.57;;;3.80;;
11384;SDS011;5747;56.748;13.882;2024-03-08T07:36:58;7.47;;;3.37;;
11384;SDS011;5747;56.748;13.882;2024-03-08T07:39:26;5.83;;;3.83;;
11384;SDS011;5747;56.748;13.882;2024-03-08T07:41:54;5.70;;;3.50;;
11384;SDS011;5747;56.748;13.882;2024-03-08T07:44:24;7.03;;;3.57;;
11384;SDS011;5747;56.748;13.882;2024-03-08T07:46:52;6.50;;;3.93;;
11384;SDS011;5747;56.748;13.882;2024-03-08T07:49:23;5.73;;;3.33;;
11384;SDS011;5747;56.748;13.882;2024-03-08T07:51:51;4.80;;;3.40;;
11384;SDS011;5747;56.748;13.882;2024-03-08T07:54:20;5.83;;;3.17;;
11384;SDS011;5747;56.748;13.882;2024-03-08T07:56:48;4.60;;;3.47;;
11384;SDS011;5747;56.748;13.882;2024-03-08T07:59:17;5.63;;;3.27;;
11384;SDS011;5747;56.748;13.882;2024-03-08T08:01:49;7.27;;;3.53;;
11384;SDS011;5747;56.748;13.882;2024-03-08T08:04:17;4.60;;;3.07;;
11384;SDS011;5747;56.748;13.882;2024-03-08T08:06:51;6.40;;;3.17;;
11384;SDS011;5747;56.748;13.882;2024-03-08T08:09:21;5.50;;;3.10;;
11384;SDS011;5747;56.748;13.882;2024-03-08T08:12:00;7.57;;;3.20;;
11384;SDS011;5747;56.748;13.882;2024-03-08T08:14:29;4.30;;;3.13;;
11384;SDS011;5747;56.748;13.882;2024-03-08T08:16:59;5.60;;;3.10;;
11384;SDS011;5747;56.748;13.882;2024-03-08T08:19:30;8.43;;;2.90;;
11384;SDS011;5747;56.748;13.882;2024-03-08T08:21:59;3.80;;;2.33;;
11384;SDS011;5747;56.748;13.882;2024-03-08T08:24:28;4.23;;;2.23;;
11384;SDS011;5747;56.748;13.882;2024-03-08T08:26:56;3.67;;;2.40;;
11384;SDS011;5747;56.748;13.882;2024-03-08T08:29:24;4.27;;;2.33;;
11384;SDS011;5747;56.748;13.882;2024-03-08T08:31:52;4.13;;;2.43;;
11384;SDS011;5747;56.748;13.882;2024-03-08T08:34:22;6.77;;;2.40;;
11384;SDS011;5747;56.748;13.882;2024-03-08T08:36:50;3.87;;;2.10;;
11384;SDS011;5747;56.748;13.882;2024-03-08T08:39:19;6.07;;;2.40;;
11384;SDS011;5747;56.748;13.882;2024-03-08T08:41:49;7.10;;;2.20;;
11384;SDS011;5747;56.748;13.882;2024-03-08T08:44:19;3.03;;;2.13;;
11384;SDS011;5747;56.748;13.882;2024-03-08T08:46:47;3.40;;;1.80;;
11384;SDS011;5747;56.748;13.882;2024-03-08T08:49:18;3.47;;;1.93;;
11384;SDS011;5747;56.748;13.882;2024-03-08T08:51:51;3.53;;;1.77;;
11384;SDS011;5747;56.748;13.882;2024-03-08T08:54:24;3.83;;;2.40;;
11384;SDS011;5747;56.748;13.882;2024-03-08T08:56:54;2.70;;;1.93;;
11384;SDS011;5747;56.748;13.882;2024-03-08T08:59:22;2.93;;;1.80;;
11384;SDS011;5747;56.748;13.882;2024-03-08T09:01:51;2.97;;;1.80;;
11384;SDS011;5747;56.748;13.882;2024-03-08T09:04:20;3.30;;;1.73;;
11384;SDS011;5747;56.748;13.882;2024-03-08T09:06:49;2.67;;;1.60;;
11384;SDS011;5747;56.748;13.882;2024-03-08T09:09:20;2.40;;;1.50;;
11384;SDS011;5747;56.748;13.882;2024-03-08T09:11:48;2.73;;;1.67;;
11384;SDS011;5747;56.748;13.882;2024-03-08T09:14:16;1.97;;;1.70;;
11384;SDS011;5747;56.748;13.882;2024-03-08T09:16:46;2.53;;;1.73;;
11384;SDS011;5747;56.748;13.882;2024-03-08T09:19:15;2.60;;;1.43;;
11384;SDS011;5747;56.748;13.882;2024-03-08T09:21:43;1.97;;;1.60;;
11384;SDS011;5747;56.748;13.882;2024-03-08T09:24:13;2.00;;;1.70;;
11384;SDS011;5747;56.748;13.882;2024-03-08T09:26:42;2.23;;;1.63;;
11384;SDS011;5747;56.748;13.882;2024-03-08T09:29:10;3.53;;;1.70;;
11384;SDS011;5747;56.748;13.882;2024-03-08T09:31:38;2.43;;;1.50;;
11384;SDS011;5747;56.748;13.882;2024-03-08T09:34:07;2.50;;;1.60;;
11384;SDS011;5747;56.748;13.882;2024-03-08T09:36:40;3.60;;;1.70;;
11384;SDS011;5747;56.748;13.882;2024-03-08T09:39:08;4.50;;;1.47;;
11384;SDS011;5747;56.748;13.882;2024-03-08T09:41:44;3.03;;;1.50;;
11384;SDS011;5747;56.748;13.882;2024-03-08T09:44:14;1.73;;;1.50;;
11384;SDS011;5747;56.748;13.882;2024-03-08T09:46:43;3.17;;;1.40;;
11384;SDS011;5747;56.748;13.882;2024-03-08T09:49:13;3.00;;;1.53;;
11384;SDS011;5747;56.748;13.882;2024-03-08T09:51:43;3.10;;;1.70;;
11384;SDS011;5747;56.748;13.882;2024-03-08T09:54:11;1.60;;;1.37;;
11384;SDS011;5747;56.748;13.882;2024-03-08T09:56:49;1.33;;;1.20;;
11384;SDS011;5747;56.748;13.882;2024-03-08T09:59:19;2.27;;;1.10;;
11384;SDS011;5747;56.748;13.882;2024-03-08T10:02:11;1.53;;;1.17;;
11384;SDS011;5747;56.748;13.882;2024-03-08T10:04:42;2.10;;;1.30;;
11384;SDS011;5747;56.748;13.882;2024-03-08T10:07:13;2.50;;;1.40;;
11384;SDS011;5747;56.748;13.882;2024-03-08T10:09:42;2.73;;;1.40;;
11384;SDS011;5747;56.748;13.882;2024-03-08T10:12:17;3.10;;;1.33;;
11384;SDS011;5747;56.748;13.882;2024-03-08T10:14:46;2.33;;;1.10;;
11384;SDS011;5747;56.748;13.882;2024-03-08T10:17:14;1.40;;;1.10;;
11384;SDS011;5747;56.748;13.882;2024-03-08T10:19:49;2.70;;;1.10;;
11384;SDS011;5747;56.748;13.882;2024-03-08T10:22:18;1.63;;;1.40;;
11384;SDS011;5747;56.748;13.882;2024-03-08T10:24:46;1.73;;;1.20;;
11384;SDS011;5747;56.748;13.882;2024-03-08T10:27:17;1.40;;;1.20;;
11384;SDS011;5747;56.748;13.882;2024-03-08T10:29:46;2.17;;;1.10;;
11384;SDS011;5747;56.748;13.882;2024-03-08T10:32:15;1.90;;;1.10;;
11384;SDS011;5747;56.748;13.882;2024-03-08T10:34:43;1.20;;;1.07;;
11384;SDS011;5747;56.748;13.882;2024-03-08T10:37:12;1.83;;;1.20;;
11384;SDS011;5747;56.748;13.882;2024-03-08T10:39:46;2.67;;;1.10;;
11384;SDS011;5747;56.748;13.882;2024-03-08T10:42:23;1.30;;;1.17;;
11384;SDS011;5747;56.748;13.882;2024-03-08T10:44:58;1.50;;;1.20;;
11384;SDS011;5747;56.748;13.882;2024-03-08T10:47:34;1.87;;;1.23;;
11384;SDS011;5747;56.748;13.882;2024-03-08T10:50:10;1.77;;;1.20;;
11384;SDS011;5747;56.748;13.882;2024-03-08T10:52:48;2.10;;;0.97;;
11384;SDS011;5747;56.748;13.882;2024-03-08T10:55:18;1.27;;;1.00;;
11384;SDS011;5747;56.748;13.882;2024-03-08T10:57:48;1.77;;;1.10;;
11384;SDS011;5747;56.748;13.882;2024-03-08T11:00:17;2.37;;;1.03;;
11384;SDS011;5747;56.748;13.882;2024-03-08T11:02:52;1.13;;;0.93;;
11384;SDS011;5747;56.748;13.882;2024-03-08T11:05:31;1.10;;;1.00;;
11384;SDS011;5747;56.748;13.882;2024-03-08T11:08:02;0.90;;;0.90;;
11384;SDS011;5747;56.748;13.882;2024-03-08T11:10:31;2.03;;;1.10;;
11384;SDS011;5747;56.748;13.882;2024-03-08T11:13:01;1.00;;;0.90;;
11384;SDS011;5747;56.748;13.882;2024-03-08T11:15:29;3.00;;;1.20;;
11384;SDS011;5747;56.748;13.882;2024-03-08T11:17:58;1.67;;;0.90;;
11384;SDS011;5747;56.748;13.882;2024-03-08T11:20:28;5.73;;;1.07;;
11384;SDS011;5747;56.748;13.882;2024-03-08T11:23:00;1.00;;;0.90;;
11384;SDS011;5747;56.748;13.882;2024-03-08T11:25:36;2.10;;;0.90;;
11384;SDS011;5747;56.748;13.882;2024-03-08T11:28:10;1.13;;;0.93;;
11384;SDS011;5747;56.748;13.882;2024-03-08T11:30:47;2.43;;;1.20;;
11384;SDS011;5747;56.748;13.882;2024-03-08T11:33:53;1.53;;;1.00;;
11384;SDS011;5747;56.748;13.882;2024-03-08T11:36:23;2.13;;;1.27;;
11384;SDS011;5747;56.748;13.882;2024-03-08T11:38:52;1.97;;;1.00;;
11384;SDS011;5747;56.748;13.882;2024-03-08T11:41:23;1.50;;;0.80;;
11384;SDS011;5747;56.748;13.882;2024-03-08T11:44:02;0.97;;;0.87;;
11384;SDS011;5747;56.748;13.882;2024-03-08T11:46:33;1.13;;;0.70;;
11384;SDS011;5747;56.748;13.882;2024-03-08T11:49:01;0.80;;;0.80;;
11384;SDS011;5747;56.748;13.882;2024-03-08T11:51:32;1.57;;;1.07;;
11384;SDS011;5747;56.748;13.882;2024-03-08T11:54:00;1.20;;;0.80;;
11384;SDS011;5747;56.748;13.882;2024-03-08T11:56:29;2.00;;;0.90;;
11384;SDS011;5747;56.748;13.882;2024-03-08T11:58:58;1.17;;;0.80;;
11384;SDS011;5747;56.748;13.882;2024-03-08T12:01:29;1.77;;;0.80;;
11384;SDS011;5747;56.748;13.882;2024-03-08T12:03:59;2.30;;;1.10;;
11384;SDS011;5747;56.748;13.882;2024-03-08T12:06:36;0.90;;;0.90;;
11384;SDS011;5747;56.748;13.882;2024-03-08T12:09:07;1.37;;;0.90;;
11384;SDS011;5747;56.748;13.882;2024-03-08T12:11:37;0.80;;;0.80;;
11384;SDS011;5747;56.748;13.882;2024-03-08T12:14:06;1.70;;;1.00;;
11384;SDS011;5747;56.748;13.882;2024-03-08T12:16:37;1.03;;;0.90;;
11384;SDS011;5747;56.748;13.882;2024-03-08T12:19:05;1.17;;;0.80;;
11384;SDS011;5747;56.748;13.882;2024-03-08T12:21:36;0.90;;;0.77;;
11384;SDS011;5747;56.748;13.882;2024-03-08T12:24:04;1.63;;;0.80;;
11384;SDS011;5747;56.748;13.882;2024-03-08T12:26:36;1.10;;;0.77;;
11384;SDS011;5747;56.748;13.882;2024-03-08T12:31:55;0.93;;;0.90;;
11384;SDS011;5747;56.748;13.882;2024-03-08T12:34:27;1.10;;;0.80;;
11384;SDS011;5747;56.748;13.882;2024-03-08T12:36:55;1.30;;;0.80;;
11384;SDS011;5747;56.748;13.882;2024-03-08T12:39:23;2.90;;;1.00;;
11384;SDS011;5747;56.748;13.882;2024-03-08T12:41:53;2.00;;;0.90;;
11384;SDS011;5747;56.748;13.882;2024-03-08T12:44:24;1.73;;;0.80;;
11384;SDS011;5747;56.748;13.882;2024-03-08T12:46:52;0.80;;;0.80;;
11384;SDS011;5747;56.748;13.882;2024-03-08T12:49:23;1.63;;;0.73;;
11384;SDS011;5747;56.748;13.882;2024-03-08T12:51:52;0.90;;;0.80;;
11384;SDS011;5747;56.748;13.882;2024-03-08T12:54:20;2.50;;;0.93;;
11384;SDS011;5747;56.748;13.882;2024-03-08T12:56:51;1.30;;;0.80;;
11384;SDS011;5747;56.748;13.882;2024-03-08T12:59:21;1.20;;;1.00;;
11384;SDS011;5747;56.748;13.882;2024-03-08T13:01:50;1.53;;;0.90;;
11384;SDS011;5747;56.748;13.882;2024-03-08T13:04:21;1.10;;;1.00;;
11384;SDS011;5747;56.748;13.882;2024-03-08T13:06:49;2.63;;;1.00;;
11384;SDS011;5747;56.748;13.882;2024-03-08T13:09:21;1.53;;;1.10;;
11384;SDS011;5747;56.748;13.882;2024-03-08T13:11:50;1.10;;;0.97;;
11384;SDS011;5747;56.748;13.882;2024-03-08T13:14:19;2.07;;;0.90;;
11384;SDS011;5747;56.748;13.882;2024-03-08T13:16:48;1.73;;;1.17;;
11384;SDS011;5747;56.748;13.882;2024-03-08T13:19:17;0.93;;;0.90;;
11384;SDS011;5747;56.748;13.882;2024-03-08T13:21:49;3.73;;;0.90;;
11384;SDS011;5747;56.748;13.882;2024-03-08T13:24:17;0.87;;;0.70;;
11384;SDS011;5747;56.748;13.882;2024-03-08T13:26:47;1.37;;;0.83;;
11384;SDS011;5747;56.748;13.882;2024-03-08T13:29:16;1.10;;;0.70;;
11384;SDS011;5747;56.748;13.882;2024-03-08T13:31:45;1.60;;;0.80;;
11384;SDS011;5747;56.748;13.882;2024-03-08T13:34:18;1.10;;;0.80;;
11384;SDS011;5747;56.748;13.882;2024-03-08T13:36:55;1.20;;;0.80;;
11384;SDS011;5747;56.748;13.882;2024-03-08T13:39:27;0.70;;;0.70;;
11384;SDS011;5747;56.748;13.882;2024-03-08T13:41:57;0.73;;;0.63;;
11384;SDS011;5747;56.748;13.882;2024-03-08T13:44:25;1.13;;;0.80;;
11384;SDS011;5747;56.748;13.882;2024-03-08T13:46:54;0.70;;;0.70;;
11384;SDS011;5747;56.748;13.882;2024-03-08T13:49:24;1.23;;;0.73;;
11384;SDS011;5747;56.748;13.882;2024-03-08T13:51:53;1.13;;;0.60;;
11384;SDS011;5747;56.748;13.882;2024-03-08T13:54:23;0.93;;;0.90;;
11384;SDS011;5747;56.748;13.882;2024-03-08T13:56:51;3.87;;;1.00;;
11384;SDS011;5747;56.748;13.882;2024-03-08T13:59:20;0.80;;;0.80;;
11384;SDS011;5747;56.748;13.882;2024-03-08T14:01:49;3.30;;;0.87;;
11384;SDS011;5747;56.748;13.882;2024-03-08T14:04:17;2.30;;;0.90;;
11384;SDS011;5747;56.748;13.882;2024-03-08T14:06:46;1.67;;;0.90;;
11384;SDS011;5747;56.748;13.882;2024-03-08T14:09:15;0.80;;;0.80;;
11384;SDS011;5747;56.748;13.882;2024-03-08T14:11:45;3.10;;;0.87;;
11384;SDS011;5747;56.748;13.882;2024-03-08T14:14:13;0.87;;;0.87;;
11384;SDS011;5747;56.748;13.882;2024-03-08T14:16:41;1.03;;;0.93;;
11384;SDS011;5747;56.748;13.882;2024-03-08T14:19:10;0.93;;;0.83;;
11384;SDS011;5747;56.748;13.882;2024-03-08T14:21:38;1.90;;;0.73;;
11384;SDS011;5747;56.748;13.882;2024-03-08T14:24:08;0.80;;;0.80;;
11384;SDS011;5747;56.748;13.882;2024-03-08T14:26:36;0.70;;;0.70;;
11384;SDS011;5747;56.748;13.882;2024-03-08T14:29:06;0.70;;;0.70;;
11384;SDS011;5747;56.748;13.882;2024-03-08T14:31:36;0.70;;;0.70;;
11384;SDS011;5747;56.748;13.882;2024-03-08T14:34:04;0.60;;;0.60;;
11384;SDS011;5747;56.748;13.882;2024-03-08T14:36:34;0.77;;;0.70;;
11384;SDS011;5747;56.748;13.882;2024-03-08T14:39:02;0.88;;;0.70;;
11384;SDS011;5747;56.748;13.882;2024-03-08T14:41:30;0.90;;;0.70;;
11384;SDS011;5747;56.748;13.882;2024-03-08T14:43:58;0.73;;;0.70;;
11384;SDS011;5747;56.748;13.882;2024-03-08T14:46:28;1.47;;;0.70;;
11384;SDS011;5747;56.748;13.882;2024-03-08T14:48:57;0.60;;;0.60;;
11384;SDS011;5747;56.748;13.882;2024-03-08T14:51:25;0.70;;;0.70;;
11384;SDS011;5747;56.748;13.882;2024-03-08T14:53:54;0.67;;;0.67;;
11384;SDS011;5747;56.748;13.882;2024-03-08T14:56:22;1.00;;;0.90;;
11384;SDS011;5747;56.748;13.882;2024-03-08T14:58:53;0.73;;;0.70;;
11384;SDS011;5747;56.748;13.882;2024-03-08T15:01:25;1.30;;;0.70;;
11384;SDS011;5747;56.748;13.882;2024-03-08T15:03:57;0.67;;;0.60;;
11384;SDS011;5747;56.748;13.882;2024-03-08T15:06:29;0.70;;;0.70;;
11384;SDS011;5747;56.748;13.882;2024-03-08T15:08:57;0.70;;;0.60;;